Time;durP1;ratioP1;P1;durP2;ratioP2;P2;SDS_P1;SDS_P2;PMS_P1;PMS_P2;Temp;Humidity;BMP_temperature;BMP_pressure;BME280_temperature;BME280_humidity;BME280_pressure;Samples;Min_cycle;Max_cycle;Signal;HPM_P1;HPM_P2
2021/11/06 00:02:40;;;;;;;29.00;19.25;;;;;;;;;;5076720;28;20127;-85
2021/11/06 00:05:06;;;;;;;29.38;16.75;;;;;;;;;;5100072;28;20036;-85
2021/11/06 00:08:10;;;;;;;25.42;18.20;;;;;;;;;;5099317;28;20053;-85
2021/11/06 00:10:36;;;;;;;26.60;16.88;;;;;;;;;;5099247;28;20020;-84
2021/11/06 00:13:02;;;;;;;28.30;17.60;;;;;;;;;;5098426;28;20416;-85
2021/11/06 00:15:28;;;;;;;23.70;16.55;;;;;;;;;;5098664;28;20032;-86
2021/11/06 00:17:54;;;;;;;23.70;17.02;;;;;;;;;;5099271;28;20050;-86
2021/11/06 00:20:20;;;;;;;23.02;16.85;;;;;;;;;;5099453;28;20024;-84
2021/11/06 00:22:47;;;;;;;22.38;16.63;;;;;;;;;;5098344;28;20024;-84
2021/11/06 00:25:13;;;;;;;24.75;17.20;;;;;;;;;;5098247;28;20062;-83
2021/11/06 00:27:39;;;;;;;24.13;17.17;;;;;;;;;;5098948;28;20040;-84
2021/11/06 00:30:08;;;;;;;24.65;16.65;;;;;;;;;;5097786;28;20024;-84
2021/11/06 00:32:34;;;;;;;24.20;16.95;;;;;;;;;;5098822;28;20406;-83
2021/11/06 00:35:00;;;;;;;20.50;16.30;;;;;;;;;;5097860;28;20436;-83
2021/11/06 00:38:03;;;;;;;23.80;17.83;;;;;;;;;;5098546;28;20038;-84
2021/11/06 00:40:29;;;;;;;21.55;15.93;;;;;;;;;;5097670;28;20036;-83
2021/11/06 00:42:55;;;;;;;26.65;17.33;;;;;;;;;;5098653;28;20429;-83
2021/11/06 00:45:21;;;;;;;23.73;17.02;;;;;;;;;;5099011;28;20035;-84
2021/11/06 00:47:48;;;;;;;22.98;16.52;;;;;;;;;;5098679;28;20111;-84
2021/11/06 00:50:16;;;;;;;23.17;16.83;;;;;;;;;;5098774;28;20314;-84
2021/11/06 00:52:42;;;;;;;24.33;16.73;;;;;;;;;;5098435;28;20455;-84
2021/11/06 00:55:08;;;;;;;21.77;16.23;;;;;;;;;;5097522;28;20115;-83
2021/11/06 00:57:34;;;;;;;21.58;16.38;;;;;;;;;;5098769;28;20031;-83
2021/11/06 01:00:01;;;;;;;22.90;16.75;;;;;;;;;;5098135;28;20123;-83
2021/11/06 01:02:27;;;;;;;21.88;16.33;;;;;;;;;;5098664;28;20038;-83
2021/11/06 01:04:53;;;;;;;22.35;15.88;;;;;;;;;;5098056;28;20047;-83
2021/11/06 01:07:19;;;;;;;27.40;19.52;;;;;;;;;;5098378;28;20024;-83
2021/11/06 01:09:45;;;;;;;26.48;18.58;;;;;;;;;;5097177;28;20036;-83
2021/11/06 01:12:11;;;;;;;23.38;17.38;;;;;;;;;;5097161;28;20031;-83
2021/11/06 01:14:37;;;;;;;21.00;15.73;;;;;;;;;;5098294;28;20024;-83
2021/11/06 01:17:03;;;;;;;26.27;16.45;;;;;;;;;;5097890;28;20024;-82
2021/11/06 01:19:29;;;;;;;22.92;16.80;;;;;;;;;;5096543;28;20123;-83
2021/11/06 01:21:55;;;;;;;22.20;17.00;;;;;;;;;;5098249;28;20024;-83
2021/11/06 01:24:21;;;;;;;24.23;17.65;;;;;;;;;;5097899;28;20030;-82
2021/11/06 01:26:47;;;;;;;20.23;15.90;;;;;;;;;;5098053;28;20024;-82
2021/11/06 01:29:13;;;;;;;23.73;16.35;;;;;;;;;;5097492;28;20032;-82
2021/11/06 01:31:39;;;;;;;24.95;18.33;;;;;;;;;;5097875;28;20016;-82
2021/11/06 01:34:06;;;;;;;20.02;15.95;;;;;;;;;;5096511;28;20020;-82
2021/11/06 01:36:32;;;;;;;21.42;16.77;;;;;;;;;;5096680;28;20024;-82
2021/11/06 01:38:58;;;;;;;23.98;15.93;;;;;;;;;;5097695;28;20016;-83
2021/11/06 01:41:24;;;;;;;22.00;16.63;;;;;;;;;;5097655;28;20024;-83
2021/11/06 01:43:50;;;;;;;20.85;15.88;;;;;;;;;;5097753;28;20295;-85
2021/11/06 01:46:16;;;;;;;22.58;16.45;;;;;;;;;;5097893;28;20020;-85
2021/11/06 01:48:43;;;;;;;22.23;17.42;;;;;;;;;;5097342;28;20123;-85
2021/11/06 01:51:09;;;;;;;21.90;16.83;;;;;;;;;;5097708;28;20398;-85
2021/11/06 01:53:35;;;;;;;24.05;15.88;;;;;;;;;;5097707;28;20458;-85
2021/11/06 01:56:02;;;;;;;19.80;15.95;;;;;;;;;;5097949;28;20142;-86
2021/11/06 01:58:29;;;;;;;21.83;15.70;;;;;;;;;;5096963;28;20016;-86
2021/11/06 02:00:55;;;;;;;20.23;15.68;;;;;;;;;;5097987;28;20060;-85
2021/11/06 02:03:22;;;;;;;20.85;14.63;;;;;;;;;;5097722;28;20051;-85
2021/11/06 02:05:48;;;;;;;19.48;14.27;;;;;;;;;;5097923;28;20024;-85
2021/11/06 02:11:18;;;;;;;20.92;14.63;;;;;;;;;;5097477;28;20035;-85
2021/11/06 02:13:44;;;;;;;21.73;15.32;;;;;;;;;;5097898;28;20027;-85
2021/11/06 02:16:10;;;;;;;20.15;15.20;;;;;;;;;;5096333;28;20035;-84
2021/11/06 02:18:36;;;;;;;22.83;15.18;;;;;;;;;;5096998;28;20032;-82
2021/11/06 02:21:10;;;;;;;22.52;15.73;;;;;;;;;;5096382;28;20024;-85
2021/11/06 02:23:38;;;;;;;22.55;15.20;;;;;;;;;;5096521;28;20047;-85
2021/11/06 02:26:04;;;;;;;22.67;14.85;;;;;;;;;;5097587;28;20290;-85
2021/11/06 02:28:31;;;;;;;17.55;13.68;;;;;;;;;;5097274;28;20429;-85
2021/11/06 02:30:57;;;;;;;20.15;14.70;;;;;;;;;;5096451;28;20062;-85
2021/11/06 02:33:23;;;;;;;17.75;13.75;;;;;;;;;;5100869;28;20032;-85
2021/11/06 02:35:49;;;;;;;20.23;14.82;;;;;;;;;;5101206;28;20436;-85
2021/11/06 02:41:19;;;;;;;18.85;14.07;;;;;;;;;;5101556;28;20036;-85
2021/11/06 02:43:45;;;;;;;17.83;13.70;;;;;;;;;;5100259;28;20539;-85
2021/11/06 02:46:11;;;;;;;21.35;14.93;;;;;;;;;;5101468;28;20410;-85
2021/11/06 02:48:37;;;;;;;20.20;14.73;;;;;;;;;;5101402;28;20070;-86
2021/11/06 02:51:03;;;;;;;20.25;14.35;;;;;;;;;;5100839;28;20032;-86
2021/11/06 02:53:29;;;;;;;21.27;13.88;;;;;;;;;;5100906;28;20107;-86
2021/11/06 02:55:55;;;;;;;21.77;14.90;;;;;;;;;;5101044;28;20112;-85
2021/11/06 02:58:21;;;;;;;20.38;14.45;;;;;;;;;;5099947;28;20032;-85
2021/11/06 03:00:47;;;;;;;19.15;13.65;;;;;;;;;;5099571;28;20028;-85
2021/11/06 03:03:14;;;;;;;18.15;13.13;;;;;;;;;;5099600;28;20044;-85
2021/11/06 03:05:40;;;;;;;14.70;12.05;;;;;;;;;;5101010;28;20020;-85
2021/11/06 03:11:09;;;;;;;18.42;13.05;;;;;;;;;;5100448;28;20069;-85
2021/11/06 03:13:36;;;;;;;16.80;12.63;;;;;;;;;;5100602;28;20028;-85
2021/11/06 03:16:03;;;;;;;17.88;12.35;;;;;;;;;;5100531;28;20019;-85
2021/11/06 03:18:29;;;;;;;17.40;12.75;;;;;;;;;;5100690;28;20143;-85
2021/11/06 03:20:57;;;;;;;19.23;13.45;;;;;;;;;;5100793;28;20032;-86
2021/11/06 03:23:27;;;;;;;18.95;13.65;;;;;;;;;;5100341;28;20047;-85
2021/11/06 03:25:53;;;;;;;18.45;13.23;;;;;;;;;;5100663;28;20020;-85
2021/11/06 03:28:19;;;;;;;18.20;12.80;;;;;;;;;;5100479;28;20020;-85
2021/11/06 03:30:45;;;;;;;19.42;13.45;;;;;;;;;;5100099;28;20115;-85
2021/11/06 03:33:11;;;;;;;18.33;13.30;;;;;;;;;;5100493;28;20035;-85
2021/11/06 03:35:38;;;;;;;16.95;12.88;;;;;;;;;;5100641;28;20016;-84
2021/11/06 03:38:22;;;;;;;20.90;13.48;;;;;;;;;;5100338;28;20036;-85
2021/11/06 03:40:48;;;;;;;21.20;14.93;;;;;;;;;;5100014;28;20024;-85
2021/11/06 03:43:15;;;;;;;22.48;14.13;;;;;;;;;;5098804;28;20035;-85
2021/11/06 03:45:41;;;;;;;19.33;13.40;;;;;;;;;;5098966;28;20298;-85
2021/11/06 03:48:07;;;;;;;18.48;13.45;;;;;;;;;;5099957;28;20055;-84
2021/11/06 03:50:33;;;;;;;17.45;12.82;;;;;;;;;;5099852;28;20322;-84
2021/11/06 03:53:15;;;;;;;19.80;13.27;;;;;;;;;;5099838;28;20020;-85
2021/11/06 03:55:41;;;;;;;19.25;12.65;;;;;;;;;;5099833;28;20111;-84
2021/11/06 03:58:07;;;;;;;17.75;13.98;;;;;;;;;;5099980;28;20044;-84
2021/11/06 04:00:33;;;;;;;19.20;13.73;;;;;;;;;;5099423;28;20485;-84
2021/11/06 04:02:59;;;;;;;23.63;15.65;;;;;;;;;;5099279;28;20032;-84
2021/11/06 04:05:25;;;;;;;22.25;14.38;;;;;;;;;;5099760;28;20036;-84
2021/11/06 04:07:51;;;;;;;23.25;14.63;;;;;;;;;;5099053;28;20039;-84
2021/11/06 04:10:17;;;;;;;19.70;13.93;;;;;;;;;;5099667;28;20036;-86
2021/11/06 04:12:45;;;;;;;20.60;14.15;;;;;;;;;;5099564;28;20024;-87
2021/11/06 04:15:11;;;;;;;17.35;12.93;;;;;;;;;;5098741;28;20028;-86
2021/11/06 04:17:37;;;;;;;18.70;13.43;;;;;;;;;;5099642;28;20142;-85
2021/11/06 04:20:05;;;;;;;19.13;13.65;;;;;;;;;;5099503;28;20024;-84
2021/11/06 04:22:36;;;;;;;16.42;13.02;;;;;;;;;;5099331;28;20024;-83
2021/11/06 04:25:03;;;;;;;19.47;13.90;;;;;;;;;;5098755;28;20028;-84
2021/11/06 04:27:29;;;;;;;18.77;13.35;;;;;;;;;;5098061;28;20414;-83
2021/11/06 04:29:55;;;;;;;19.52;14.23;;;;;;;;;;5098778;28;20036;-84
2021/11/06 04:32:22;;;;;;;17.95;13.95;;;;;;;;;;5098238;28;20024;-84
2021/11/06 04:34:48;;;;;;;20.25;13.93;;;;;;;;;;5099102;28;20326;-90
2021/11/06 04:37:14;;;;;;;18.80;13.98;;;;;;;;;;5099061;28;20028;-85
2021/11/06 04:42:44;;;;;;;21.13;14.02;;;;;;;;;;5098942;28;20092;-84
2021/11/06 04:45:11;;;;;;;17.60;13.63;;;;;;;;;;5098901;28;20031;-85
2021/11/06 04:47:38;;;;;;;19.92;14.13;;;;;;;;;;5098576;28;20027;-84
2021/11/06 04:50:04;;;;;;;19.58;15.18;;;;;;;;;;5098490;28;20034;-84
2021/11/06 04:53:02;;;;;;;22.58;14.73;;;;;;;;;;5097648;28;20024;-84
2021/11/06 04:55:28;;;;;;;18.48;14.82;;;;;;;;;;5097014;28;20057;-85
2021/11/06 04:57:54;;;;;;;20.05;15.70;;;;;;;;;;5098834;28;20392;-86
2021/11/06 05:00:20;;;;;;;25.88;20.83;;;;;;;;;;5098670;28;20039;-87
2021/11/06 05:02:46;;;;;;;25.58;22.60;;;;;;;;;;5098552;28;20044;-86
2021/11/06 05:05:13;;;;;;;24.33;19.15;;;;;;;;;;5098457;28;20040;-86
2021/11/06 05:07:39;;;;;;;22.55;15.52;;;;;;;;;;5098668;28;20032;-86
2021/11/06 05:10:07;;;;;;;16.60;13.55;;;;;;;;;;5098366;28;20105;-85
2021/11/06 05:12:33;;;;;;;18.33;14.13;;;;;;;;;;5098524;28;20091;-85
2021/11/06 05:15:00;;;;;;;19.42;13.32;;;;;;;;;;5098214;28;20054;-84
2021/11/06 05:17:26;;;;;;;18.52;13.45;;;;;;;;;;5097262;28;20047;-84
2021/11/06 05:19:52;;;;;;;17.17;13.00;;;;;;;;;;5098363;28;20073;-84
2021/11/06 05:22:18;;;;;;;15.88;13.15;;;;;;;;;;5097099;28;20031;-84
2021/11/06 05:24:44;;;;;;;20.08;13.23;;;;;;;;;;5097133;28;20062;-84
2021/11/06 05:27:11;;;;;;;18.02;13.63;;;;;;;;;;5097375;28;20050;-85
2021/11/06 05:29:37;;;;;;;18.55;14.75;;;;;;;;;;5097775;28;20039;-84
2021/11/06 05:32:03;;;;;;;19.58;14.23;;;;;;;;;;5098028;28;20111;-85
2021/11/06 05:34:29;;;;;;;16.70;13.32;;;;;;;;;;5096915;28;20024;-84
2021/11/06 05:36:55;;;;;;;17.30;12.75;;;;;;;;;;5097935;28;20099;-83
2021/11/06 05:39:22;;;;;;;17.35;13.30;;;;;;;;;;5096768;28;20020;-83
2021/11/06 05:41:48;;;;;;;18.73;13.90;;;;;;;;;;5097960;28;20051;-83
2021/11/06 05:44:14;;;;;;;17.67;13.48;;;;;;;;;;5097600;28;20061;-84
2021/11/06 05:46:42;;;;;;;17.52;13.32;;;;;;;;;;5097610;28;20027;-84
2021/11/06 05:49:08;;;;;;;21.67;17.33;;;;;;;;;;5096694;28;20020;-84
2021/11/06 05:51:34;;;;;;;23.52;19.35;;;;;;;;;;5097934;28;20058;-83
2021/11/06 05:54:00;;;;;;;18.52;14.23;;;;;;;;;;5097483;28;20046;-83
2021/11/06 05:56:26;;;;;;;15.60;12.38;;;;;;;;;;5097473;28;20031;-83
2021/11/06 05:58:52;;;;;;;16.23;12.15;;;;;;;;;;5096448;28;20024;-84
2021/11/06 06:01:18;;;;;;;18.90;12.80;;;;;;;;;;5097978;28;20028;-85
2021/11/06 06:03:44;;;;;;;15.05;11.98;;;;;;;;;;5097511;28;20090;-84
2021/11/06 06:06:10;;;;;;;15.48;12.27;;;;;;;;;;5098061;28;20032;-84
2021/11/06 06:11:40;;;;;;;15.48;12.73;;;;;;;;;;5101939;28;20043;-84
2021/11/06 06:14:06;;;;;;;17.77;12.90;;;;;;;;;;5101915;28;20418;-84
2021/11/06 06:16:32;;;;;;;19.83;14.00;;;;;;;;;;5101452;28;20032;-84
2021/11/06 06:18:58;;;;;;;21.65;15.38;;;;;;;;;;5101793;28;20024;-84
2021/11/06 06:21:24;;;;;;;20.17;14.90;;;;;;;;;;5109319;28;20020;-85
2021/11/06 06:26:53;;;;;;;18.38;13.32;;;;;;;;;;5122096;28;20466;-86
2021/11/06 06:29:19;;;;;;;16.67;12.77;;;;;;;;;;5121742;28;20107;-84
2021/11/06 06:31:46;;;;;;;16.52;12.75;;;;;;;;;;5120791;28;20024;-84
2021/11/06 06:34:12;;;;;;;20.25;13.10;;;;;;;;;;5121806;28;20098;-85
2021/11/06 06:36:38;;;;;;;15.85;12.25;;;;;;;;;;5121989;28;20023;-84
2021/11/06 06:39:04;;;;;;;15.85;12.10;;;;;;;;;;5121590;28;20019;-84
2021/11/06 06:41:30;;;;;;;17.50;12.45;;;;;;;;;;5121697;28;20320;-85
2021/11/06 06:43:56;;;;;;;16.13;11.75;;;;;;;;;;5121530;28;20020;-85
2021/11/06 06:46:23;;;;;;;15.82;12.15;;;;;;;;;;5121830;28;20413;-85
2021/11/06 06:48:49;;;;;;;16.92;11.52;;;;;;;;;;5121078;28;20478;-84
2021/11/06 06:51:17;;;;;;;20.00;12.50;;;;;;;;;;5120336;28;20068;-85
2021/11/06 06:57:20;;;;;;;16.48;12.52;;;;;;;;;;5121524;28;20058;-84
2021/11/06 06:59:46;;;;;;;18.08;13.20;;;;;;;;;;5120987;28;20031;-84
2021/11/06 07:02:14;;;;;;;18.58;13.25;;;;;;;;;;5121041;28;20405;-85
2021/11/06 07:04:40;;;;;;;17.42;12.65;;;;;;;;;;5119863;27;20050;-84
2021/11/06 07:07:06;;;;;;;17.77;12.73;;;;;;;;;;5098414;28;20025;-84
2021/11/06 07:10:10;;;;;;;37.88;17.85;;;;;;;;;;5100631;28;20024;-84
2021/11/06 07:12:37;;;;;;;21.00;13.10;;;;;;;;;;5088239;28;20310;-86
2021/11/06 07:15:04;;;;;;;33.45;15.60;;;;;;;;;;5083642;28;20012;-84
2021/11/06 07:17:30;;;;;;;21.75;12.15;;;;;;;;;;5099045;28;20433;-84
2021/11/06 07:19:56;;;;;;;20.75;12.55;;;;;;;;;;5100441;28;20099;-84
2021/11/06 07:22:22;;;;;;;112.25;34.90;;;;;;;;;;5100642;28;20065;-84
2021/11/06 07:24:48;;;;;;;81.80;31.77;;;;;;;;;;5099490;28;20036;-84
2021/11/06 07:27:14;;;;;;;32.78;17.20;;;;;;;;;;5100409;28;20024;-84
2021/11/06 07:29:40;;;;;;;17.63;12.50;;;;;;;;;;5100134;28;20037;-85
2021/11/06 07:32:07;;;;;;;16.05;11.55;;;;;;;;;;5099942;28;20047;-86
2021/11/06 07:34:33;;;;;;;18.63;11.57;;;;;;;;;;5100088;28;20412;-85
2021/11/06 07:36:59;;;;;;;15.98;12.38;;;;;;;;;;5099262;28;20024;-85
2021/11/06 07:39:26;;;;;;;16.75;11.95;;;;;;;;;;5099996;28;20070;-85
2021/11/06 07:41:53;;;;;;;23.25;16.95;;;;;;;;;;5099316;28;20032;-84
2021/11/06 07:44:19;;;;;;;18.23;15.02;;;;;;;;;;5099420;28;20032;-83
2021/11/06 07:46:45;;;;;;;16.25;12.68;;;;;;;;;;5099946;28;20073;-84
2021/11/06 07:49:11;;;;;;;18.67;13.27;;;;;;;;;;5099065;28;20119;-84
2021/11/06 07:51:37;;;;;;;17.20;13.05;;;;;;;;;;5099304;28;20028;-84
2021/11/06 07:54:03;;;;;;;24.17;16.35;;;;;;;;;;5097202;28;20048;-84
2021/11/06 07:56:29;;;;;;;33.13;19.50;;;;;;;;;;5079415;28;20024;-84
2021/11/06 07:58:57;;;;;;;37.90;21.27;;;;;;;;;;5079639;28;20349;-84
2021/11/06 08:01:23;;;;;;;21.50;13.65;;;;;;;;;;5079573;28;20020;-84
2021/11/06 08:03:49;;;;;;;28.05;15.20;;;;;;;;;;5079391;28;20063;-84
2021/11/06 08:06:18;;;;;;;19.13;13.63;;;;;;;;;;5061278;28;20041;-84
2021/11/06 08:08:44;;;;;;;19.50;14.40;;;;;;;;;;5078612;28;20107;-84
2021/11/06 08:11:10;;;;;;;17.67;12.02;;;;;;;;;;5079048;28;20024;-84
2021/11/06 08:13:36;;;;;;;12.98;9.35;;;;;;;;;;5078969;28;20021;-83
2021/11/06 08:16:02;;;;;;;14.50;11.02;;;;;;;;;;5081340;28;20028;-84
2021/11/06 08:18:29;;;;;;;13.52;10.55;;;;;;;;;;5099263;28;20059;-84
2021/11/06 08:20:56;;;;;;;15.73;11.25;;;;;;;;;;5098387;28;20020;-84
2021/11/06 08:23:22;;;;;;;15.65;11.75;;;;;;;;;;5098390;28;20040;-84
2021/11/06 08:25:49;;;;;;;20.75;14.35;;;;;;;;;;5099070;28;20069;-83
2021/11/06 08:28:15;;;;;;;15.27;11.05;;;;;;;;;;5097066;28;20023;-85
2021/11/06 08:30:41;;;;;;;14.30;10.93;;;;;;;;;;5096945;28;20036;-85
2021/11/06 08:33:07;;;;;;;15.50;12.00;;;;;;;;;;5099317;28;20061;-85
2021/11/06 08:35:34;;;;;;;20.63;14.88;;;;;;;;;;5098358;28;20035;-85
2021/11/06 08:38:01;;;;;;;19.98;15.70;;;;;;;;;;5099427;28;20016;-84
2021/11/06 08:43:31;;;;;;;15.18;11.57;;;;;;;;;;5098704;28;20396;-85
2021/11/06 08:45:58;;;;;;;16.83;10.95;;;;;;;;;;5099046;28;20069;-85
2021/11/06 08:48:24;;;;;;;13.80;10.30;;;;;;;;;;5097742;28;20025;-84
2021/11/06 08:50:51;;;;;;;11.70;9.45;;;;;;;;;;5098731;28;20115;-84
2021/11/06 08:53:17;;;;;;;13.02;10.52;;;;;;;;;;5098627;28;20039;-85
2021/11/06 08:55:44;;;;;;;18.23;13.60;;;;;;;;;;5097980;28;20414;-84
2021/11/06 08:58:10;;;;;;;17.70;13.30;;;;;;;;;;5098875;28;20026;-84
2021/11/06 09:00:40;;;;;;;16.08;11.57;;;;;;;;;;5098265;28;20028;-83
2021/11/06 09:03:07;;;;;;;17.92;11.18;;;;;;;;;;5097719;28;20044;-83
2021/11/06 09:05:34;;;;;;;11.70;9.18;;;;;;;;;;5098578;28;20023;-86
2021/11/06 09:08:01;;;;;;;11.13;9.93;;;;;;;;;;5097927;28;20044;-83
2021/11/06 09:13:31;;;;;;;13.98;9.98;;;;;;;;;;5078275;28;20525;-84
2021/11/06 09:15:57;;;;;;;14.80;11.45;;;;;;;;;;5076722;28;20032;-83
2021/11/06 09:18:23;;;;;;;19.30;13.68;;;;;;;;;;5077884;28;20020;-83
2021/11/06 09:20:49;;;;;;;16.90;12.20;;;;;;;;;;5077279;28;20402;-84
2021/11/06 09:23:15;;;;;;;14.35;10.23;;;;;;;;;;5078076;28;20062;-85
2021/11/06 09:26:00;;;;;;;17.52;11.10;;;;;;;;;;5078276;28;20034;-84
2021/11/06 09:28:27;;;;;;;14.40;10.50;;;;;;;;;;5078187;28;20025;-82
2021/11/06 09:30:53;;;;;;;12.88;10.05;;;;;;;;;;5077768;28;20062;-89
2021/11/06 09:33:20;;;;;;;18.83;9.80;;;;;;;;;;5076530;28;20020;-80
2021/11/06 09:35:46;;;;;;;15.13;11.50;;;;;;;;;;5076625;28;20029;-80
2021/11/06 09:38:12;;;;;;;13.05;10.27;;;;;;;;;;5077343;28;20070;-80
2021/11/06 09:40:38;;;;;;;12.45;9.63;;;;;;;;;;5077135;28;20028;-81
2021/11/06 09:43:04;;;;;;;12.90;8.90;;;;;;;;;;5076448;28;20036;-81
2021/11/06 09:45:31;;;;;;;11.25;8.77;;;;;;;;;;5077404;28;20035;-81
2021/11/06 09:47:57;;;;;;;11.30;9.05;;;;;;;;;;5077130;28;20031;-81
2021/11/06 09:50:23;;;;;;;12.82;9.75;;;;;;;;;;5077331;28;20052;-81
2021/11/06 09:52:52;;;;;;;12.00;9.40;;;;;;;;;;5076887;28;20091;-81
2021/11/06 09:55:36;;;;;;;19.17;10.75;;;;;;;;;;5077234;28;20053;-82
2021/11/06 09:58:02;;;;;;;22.63;13.35;;;;;;;;;;5076957;28;20536;-81
2021/11/06 10:00:28;;;;;;;18.20;12.48;;;;;;;;;;5076982;28;20040;-81
2021/11/06 10:02:56;;;;;;;12.75;9.60;;;;;;;;;;5077014;28;20050;-81
2021/11/06 10:05:56;;;;;;;16.42;9.45;;;;;;;;;;5076830;28;20382;-81
2021/11/06 10:08:24;;;;;;;12.75;8.77;;;;;;;;;;5055035;28;20374;-81
2021/11/06 10:10:52;;;;;;;12.98;9.32;;;;;;;;;;5055147;28;20073;-81
2021/11/06 10:13:20;;;;;;;35.92;16.10;;;;;;;;;;5054866;28;20461;-81
2021/11/06 10:15:47;;;;;;;24.33;12.65;;;;;;;;;;5055183;28;20078;-82
2021/11/06 10:18:15;;;;;;;21.02;12.20;;;;;;;;;;5038038;28;20125;-81
2021/11/06 10:20:41;;;;;;;16.00;10.82;;;;;;;;;;5055196;28;20033;-81
2021/11/06 10:23:08;;;;;;;16.80;11.15;;;;;;;;;;5038341;28;20025;-82
2021/11/06 10:26:08;;;;;;;18.70;14.35;;;;;;;;;;5038305;28;20525;-81
2021/11/06 10:28:34;;;;;;;19.05;12.85;;;;;;;;;;5037692;28;20033;-81
2021/11/06 10:31:03;;;;;;;20.52;13.38;;;;;;;;;;5037592;28;20049;-81
2021/11/06 10:33:29;;;;;;;16.00;11.50;;;;;;;;;;5038067;28;20025;-81
2021/11/06 10:35:59;;;;;;;20.58;14.40;;;;;;;;;;5054764;28;20017;-80
2021/11/06 10:38:28;;;;;;;14.05;10.45;;;;;;;;;;5054598;28;20407;-81
2021/11/06 10:40:59;;;;;;;12.95;9.88;;;;;;;;;;5054464;28;20024;-81
2021/11/06 10:43:27;;;;;;;14.52;10.85;;;;;;;;;;5061305;28;20040;-81
2021/11/06 10:45:57;;;;;;;13.73;9.82;;;;;;;;;;5076557;28;20033;-81
2021/11/06 10:48:30;;;;;;;18.27;13.68;;;;;;;;;;5076452;28;20029;-81
2021/11/06 10:51:13;;;;;;;20.45;15.88;;;;;;;;;;5076530;28;20029;-81
2021/11/06 10:53:52;;;;;;;37.50;21.20;;;;;;;;;;5077539;28;20029;-81
2021/11/06 10:56:18;;;;;;;52.70;31.55;;;;;;;;;;5080249;28;20016;-80
2021/11/06 10:58:45;;;;;;;22.05;15.05;;;;;;;;;;5080008;28;20583;-80
2021/11/06 11:01:13;;;;;;;14.45;11.07;;;;;;;;;;5088408;28;20048;-79
2021/11/06 11:03:43;;;;;;;12.63;10.02;;;;;;;;;;5099295;28;20042;-79
2021/11/06 11:06:11;;;;;;;14.20;11.10;;;;;;;;;;5100397;28;20028;-80
2021/11/06 11:08:46;;;;;;;17.52;11.30;;;;;;;;;;5100428;28;20024;-79
2021/11/06 11:11:13;;;;;;;12.52;10.00;;;;;;;;;;5099961;28;20117;-79
2021/11/06 11:13:48;;;;;;;22.10;14.02;;;;;;;;;;5100248;28;20079;-79
2021/11/06 11:16:16;;;;;;;18.48;12.32;;;;;;;;;;5099794;28;20024;-79
2021/11/06 11:18:42;;;;;;;92.60;51.83;;;;;;;;;;5099076;28;20334;-80
2021/11/06 11:21:14;;;;;;;78.97;41.65;;;;;;;;;;5099906;28;20028;-80
2021/11/06 11:23:41;;;;;;;70.97;28.87;;;;;;;;;;5099240;28;20051;-81
2021/11/06 11:26:07;;;;;;;101.60;35.17;;;;;;;;;;5099820;28;20035;-80
2021/11/06 11:28:34;;;;;;;89.57;29.67;;;;;;;;;;5099839;28;20031;-80
2021/11/06 11:31:00;;;;;;;25.63;14.48;;;;;;;;;;5100042;28;20028;-80
2021/11/06 11:33:26;;;;;;;15.65;11.32;;;;;;;;;;5099606;28;20024;-80
2021/11/06 11:35:53;;;;;;;16.88;11.05;;;;;;;;;;5099667;28;20030;-80
2021/11/06 11:38:20;;;;;;;17.25;11.68;;;;;;;;;;5098507;28;20028;-80
2021/11/06 11:41:12;;;;;;;17.33;12.63;;;;;;;;;;5099449;28;20291;-80
2021/11/06 11:43:38;;;;;;;30.27;21.33;;;;;;;;;;5099391;28;20050;-80
2021/11/06 11:46:08;;;;;;;19.33;13.98;;;;;;;;;;5099478;28;20028;-81
2021/11/06 11:48:35;;;;;;;17.20;13.23;;;;;;;;;;5098705;28;20032;-80
2021/11/06 11:51:02;;;;;;;26.60;16.63;;;;;;;;;;5099337;28;20398;-80
2021/11/06 11:53:33;;;;;;;20.75;13.23;;;;;;;;;;5099546;28;20028;-79
2021/11/06 11:56:05;;;;;;;19.75;14.80;;;;;;;;;;5098252;28;20119;-79
2021/11/06 11:58:36;;;;;;;19.33;14.18;;;;;;;;;;5099397;28;20358;-80
2021/11/06 12:01:02;;;;;;;22.27;16.88;;;;;;;;;;5099272;28;20051;-80
2021/11/06 12:03:41;;;;;;;18.75;14.10;;;;;;;;;;5098048;28;20417;-80
2021/11/06 12:06:30;;;;;;;30.40;19.70;;;;;;;;;;5098359;28;20059;-80
2021/11/06 12:09:11;;;;;;;29.50;17.52;;;;;;;;;;5093484;28;20031;-79
2021/11/06 12:12:04;;;;;;;22.45;15.40;;;;;;;;;;5099178;28;20390;-80
2021/11/06 12:14:33;;;;;;;20.60;13.95;;;;;;;;;;5095235;28;20115;-80
2021/11/06 12:17:01;;;;;;;21.45;14.50;;;;;;;;;;5097812;28;20315;-80
2021/11/06 12:19:33;;;;;;;25.95;17.58;;;;;;;;;;5097990;28;20043;-80
2021/11/06 12:22:07;;;;;;;19.88;12.88;;;;;;;;;;5099014;28;20049;-81
2021/11/06 12:25:11;;;;;;;17.10;12.48;;;;;;;;;;5098003;28;20024;-81
2021/11/06 12:27:39;;;;;;;26.67;16.42;;;;;;;;;;5098788;28;20752;-79
2021/11/06 12:30:05;;;;;;;19.75;13.55;;;;;;;;;;5097451;28;20455;-81
2021/11/06 12:32:36;;;;;;;28.33;17.17;;;;;;;;;;5097919;28;20426;-81
2021/11/06 12:35:02;;;;;;;49.47;27.98;;;;;;;;;;5097852;28;20326;-81
2021/11/06 12:37:38;;;;;;;48.17;29.38;;;;;;;;;;5098853;28;20035;-81
2021/11/06 12:40:05;;;;;;;23.63;17.48;;;;;;;;;;5097585;28;20059;-81
2021/11/06 12:42:32;;;;;;;21.30;15.55;;;;;;;;;;5097721;28;20444;-81
2021/11/06 12:45:00;;;;;;;22.42;16.05;;;;;;;;;;5097193;28;20043;-82
2021/11/06 12:47:27;;;;;;;17.80;12.30;;;;;;;;;;5098564;28;20028;-81
2021/11/06 12:49:54;;;;;;;24.30;16.15;;;;;;;;;;5097988;28;20103;-81
2021/11/06 12:52:25;;;;;;;16.33;12.60;;;;;;;;;;5098230;28;20024;-81
2021/11/06 12:54:59;;;;;;;19.38;13.18;;;;;;;;;;5098180;28;20024;-81
2021/11/06 12:57:31;;;;;;;18.52;14.23;;;;;;;;;;5098118;28;20107;-81
2021/11/06 12:59:57;;;;;;;22.40;14.60;;;;;;;;;;5097822;28;20028;-81
2021/11/06 13:02:23;;;;;;;25.17;16.20;;;;;;;;;;5098079;28;20349;-79
2021/11/06 13:04:56;;;;;;;28.17;16.92;;;;;;;;;;5097940;28;20051;-81
2021/11/06 13:07:26;;;;;;;20.67;14.82;;;;;;;;;;5097871;28;20042;-81
2021/11/06 13:09:53;;;;;;;18.63;13.55;;;;;;;;;;5097556;28;20040;-81
2021/11/06 13:12:19;;;;;;;17.83;12.52;;;;;;;;;;5096945;28;20039;-80
2021/11/06 13:14:48;;;;;;;22.55;15.00;;;;;;;;;;5098083;28;20028;-81
2021/11/06 13:17:22;;;;;;;18.88;13.57;;;;;;;;;;5097314;28;20020;-81
2021/11/06 13:19:49;;;;;;;15.98;12.07;;;;;;;;;;5097892;28;20061;-81
2021/11/06 13:22:36;;;;;;;18.70;11.70;;;;;;;;;;5097907;28;20027;-81
2021/11/06 13:25:02;;;;;;;21.42;13.25;;;;;;;;;;5096498;28;20112;-81
2021/11/06 13:27:39;;;;;;;21.35;14.02;;;;;;;;;;5096921;28;20418;-81
2021/11/06 13:30:20;;;;;;;27.90;17.77;;;;;;;;;;5097273;28;20509;-81
2021/11/06 13:32:54;;;;;;;24.60;15.55;;;;;;;;;;5096594;28;20021;-81
2021/11/06 13:35:21;;;;;;;33.78;20.70;;;;;;;;;;5097730;28;20043;-81
2021/11/06 13:38:07;;;;;;;75.40;37.55;;;;;;;;;;5097687;28;20012;-81
2021/11/06 13:40:42;;;;;;;129.07;57.78;;;;;;;;;;5097608;28;20028;-81
2021/11/06 13:43:15;;;;;;;149.00;60.97;;;;;;;;;;5096638;28;20062;-81
2021/11/06 13:45:59;;;;;;;100.68;43.85;;;;;;;;;;5097333;28;20107;-82
2021/11/06 13:48:26;;;;;;;117.78;53.28;;;;;;;;;;5096223;28;20028;-81
2021/11/06 13:50:52;;;;;;;104.90;46.50;;;;;;;;;;5096273;28;20421;-81
2021/11/06 13:53:25;;;;;;;87.22;39.08;;;;;;;;;;5097355;28;20079;-81
2021/11/06 13:55:57;;;;;;;75.93;32.33;;;;;;;;;;5096833;28;20040;-81
2021/11/06 13:58:25;;;;;;;125.10;50.00;;;;;;;;;;5097404;28;20031;-82
2021/11/06 14:00:52;;;;;;;106.00;44.22;;;;;;;;;;5097158;28;20056;-81
2021/11/06 14:03:18;;;;;;;57.55;33.22;;;;;;;;;;5096256;28;20044;-81
2021/11/06 14:05:44;;;;;;;27.08;17.20;;;;;;;;;;5097199;28;20027;-81
2021/11/06 14:08:14;;;;;;;62.72;27.60;;;;;;;;;;5096437;28;20138;-80
2021/11/06 14:10:41;;;;;;;39.80;21.08;;;;;;;;;;5096684;28;20039;-81
2021/11/06 14:13:13;;;;;;;40.17;22.48;;;;;;;;;;5096717;28;20020;-81
2021/11/06 14:15:42;;;;;;;;;;;;;;;;;;5097456;28;20020;-81
2021/11/06 14:18:14;;;;;;;40.63;21.85;;;;;;;;;;5097204;28;19904;-81
2021/11/06 14:20:40;;;;;;;26.27;17.52;;;;;;;;;;5097050;28;20024;-81
2021/11/06 14:23:08;;;;;;;29.58;17.63;;;;;;;;;;5097309;28;20036;-81
2021/11/06 14:25:42;;;;;;;33.53;19.85;;;;;;;;;;5096919;28;20028;-80
2021/11/06 14:28:11;;;;;;;34.65;20.88;;;;;;;;;;5099790;28;20024;-81
2021/11/06 14:30:51;;;;;;;38.53;21.90;;;;;;;;;;5100770;28;20430;-81
2021/11/06 14:33:23;;;;;;;192.63;82.07;;;;;;;;;;5100963;28;20046;-81
2021/11/06 14:35:49;;;;;;;;;;;;;;;;;;5101326;28;20020;-81
2021/11/06 14:38:15;;;;;;;53.63;30.00;;;;;;;;;;5100696;28;19941;-81
2021/11/06 14:41:00;;;;;;;312.15;119.10;;;;;;;;;;5100955;28;20070;-81
2021/11/06 14:43:26;;;;;;;425.23;162.45;;;;;;;;;;5100544;28;20724;-80
2021/11/06 14:45:59;;;;;;;439.73;200.65;;;;;;;;;;5100606;28;20122;-80
2021/11/06 14:48:28;;;;;;;362.77;174.00;;;;;;;;;;5099549;28;20020;-80
2021/11/06 14:51:04;;;;;;;360.02;213.93;;;;;;;;;;5100511;28;20024;-80
2021/11/06 14:53:30;;;;;;;493.20;370.30;;;;;;;;;;5099394;28;20020;-79
2021/11/06 14:55:59;;;;;;;512.40;371.40;;;;;;;;;;5099178;28;20074;-80